createdAt,value
2022-11-17T00:00:41.776Z,11.05
2022-11-17T00:03:13.852Z,10.65
2022-11-17T00:05:40.632Z,10.57
2022-11-17T00:08:09.841Z,9.70
2022-11-17T00:10:36.751Z,10.25
2022-11-17T00:13:23.210Z,9.77
2022-11-17T00:15:51.166Z,10.02
2022-11-17T00:18:36.421Z,10.13
2022-11-17T00:21:21.656Z,9.55
2022-11-17T00:23:50.960Z,10.85
2022-11-17T00:26:20.145Z,9.52
2022-11-17T00:28:53.146Z,8.15
2022-11-17T00:31:38.998Z,10.00
2022-11-17T00:34:05.936Z,10.15
2022-11-17T00:36:41.262Z,9.30
2022-11-17T00:39:10.363Z,8.85
2022-11-17T00:41:37.538Z,10.30
2022-11-17T00:44:04.567Z,9.90
2022-11-17T00:46:31.805Z,11.63
2022-11-17T00:49:00.230Z,13.07
2022-11-17T00:51:27.524Z,12.60
2022-11-17T00:53:54.477Z,11.45
2022-11-17T00:56:21.432Z,10.50
2022-11-17T00:58:49.634Z,10.43
2022-11-17T01:01:16.418Z,12.20
2022-11-17T01:03:44.596Z,12.50
2022-11-17T01:06:16.817Z,14.20
2022-11-17T01:08:43.895Z,12.55
2022-11-17T01:11:13.758Z,11.77
2022-11-17T01:13:41.616Z,13.52
2022-11-17T01:16:14.342Z,11.50
2022-11-17T01:18:43.183Z,10.32
2022-11-17T01:21:14.759Z,10.65
2022-11-17T01:23:43.194Z,10.65
2022-11-17T01:26:15.800Z,11.02
2022-11-17T01:28:43.283Z,10.70
2022-11-17T01:31:16.139Z,10.10
2022-11-17T01:33:55.801Z,12.68
2022-11-17T01:36:28.461Z,11.30
2022-11-17T01:38:56.412Z,10.80
2022-11-17T01:41:32.220Z,9.50
2022-11-17T01:44:19.527Z,10.10
2022-11-17T01:46:48.365Z,13.50
2022-11-17T01:49:22.295Z,11.70
2022-11-17T01:51:52.631Z,12.95
2022-11-17T01:54:22.927Z,12.82
2022-11-17T01:56:56.530Z,12.43
2022-11-17T01:59:40.506Z,11.57
2022-11-17T02:02:13.070Z,12.27
2022-11-17T02:05:04.969Z,11.27
2022-11-17T02:07:38.957Z,11.65
2022-11-17T02:10:07.203Z,11.43
2022-11-17T02:12:40.969Z,8.90
2022-11-17T02:15:08.314Z,12.43
2022-11-17T02:17:43.884Z,11.30
2022-11-17T02:20:17.720Z,11.68
2022-11-17T02:23:01.888Z,10.63
2022-11-17T02:25:31.860Z,11.65
2022-11-17T02:28:42.321Z,10.48
2022-11-17T02:31:25.994Z,11.57
2022-11-17T02:33:55.876Z,10.02
2022-11-17T02:36:38.806Z,10.50
2022-11-17T02:39:11.538Z,11.05
2022-11-17T02:41:58.551Z,10.85
2022-11-17T02:44:37.160Z,12.35
2022-11-17T02:47:17.504Z,9.98
2022-11-17T02:49:54.582Z,8.73
2022-11-17T02:52:22.972Z,9.70
2022-11-17T02:54:49.750Z,9.35
2022-11-17T02:57:32.047Z,8.77
2022-11-17T03:00:18.281Z,10.02
2022-11-17T03:03:19.775Z,8.50
2022-11-17T03:06:29.069Z,9.88
2022-11-17T03:09:17.955Z,8.35
2022-11-17T03:11:59.428Z,7.65
2022-11-17T03:14:38.033Z,7.45
2022-11-17T03:17:28.724Z,7.88
2022-11-17T03:20:05.728Z,6.65
2022-11-17T03:22:44.849Z,6.70
2022-11-17T03:25:16.429Z,6.97
2022-11-17T03:27:47.313Z,7.07
2022-11-17T03:30:15.414Z,6.40
2022-11-17T03:32:48.774Z,6.03
2022-11-17T03:35:19.569Z,6.35
2022-11-17T03:37:51.485Z,6.82
2022-11-17T03:40:22.187Z,7.22
2022-11-17T03:42:53.952Z,6.70
2022-11-17T03:45:25.502Z,7.28
2022-11-17T03:48:03.456Z,7.43
2022-11-17T03:50:42.377Z,7.25
2022-11-17T03:53:09.393Z,8.27
2022-11-17T03:55:47.496Z,8.20
2022-11-17T03:58:19.565Z,8.63
2022-11-17T04:00:51.075Z,9.55
2022-11-17T04:03:17.887Z,9.70
2022-11-17T04:05:44.754Z,11.23
2022-11-17T04:08:11.482Z,10.60
2022-11-17T04:10:58.229Z,10.47
2022-11-17T04:13:43.574Z,9.73
2022-11-17T04:16:10.323Z,9.82
2022-11-17T04:18:36.966Z,9.57
2022-11-17T04:21:09.668Z,10.35
2022-11-17T04:23:37.981Z,10.05
2022-11-17T04:26:23.473Z,10.23
2022-11-17T04:28:50.894Z,10.40
2022-11-17T04:31:28.166Z,10.00
2022-11-17T04:33:57.398Z,10.50
2022-11-17T04:36:31.609Z,10.73
2022-11-17T04:38:59.999Z,11.23
2022-11-17T04:41:46.720Z,11.95
2022-11-17T04:44:16.015Z,11.00
2022-11-17T04:46:44.628Z,11.90
2022-11-17T04:49:13.790Z,11.07
2022-11-17T04:51:41.146Z,11.02
2022-11-17T04:54:09.627Z,11.10
2022-11-17T04:56:37.144Z,10.50
2022-11-17T04:59:04.738Z,10.30
2022-11-17T05:04:07.053Z,10.43
2022-11-17T05:06:51.650Z,10.00
2022-11-17T05:09:22.420Z,10.27
2022-11-17T05:12:07.898Z,9.55
2022-11-17T05:14:34.689Z,10.25
2022-11-17T05:17:12.025Z,9.90
2022-11-17T05:19:41.847Z,10.50
2022-11-17T05:22:28.470Z,10.18
2022-11-17T05:24:55.866Z,11.45
2022-11-17T05:27:23.943Z,9.90
2022-11-17T05:29:50.818Z,9.90
2022-11-17T05:32:18.261Z,11.20
2022-11-17T05:34:45.285Z,11.00
2022-11-17T05:37:12.071Z,11.60
2022-11-17T05:39:38.766Z,12.77
2022-11-17T05:42:07.554Z,12.13
2022-11-17T05:44:34.373Z,12.30
2022-11-17T05:47:01.214Z,12.03
2022-11-17T05:49:28.275Z,11.23
2022-11-17T05:51:56.158Z,12.18
2022-11-17T05:54:23.069Z,11.50
2022-11-17T05:57:06.118Z,10.45
2022-11-17T05:59:38.907Z,10.50
2022-11-17T06:02:12.138Z,10.80
2022-11-17T06:04:39.579Z,11.02
2022-11-17T06:07:12.164Z,11.20
2022-11-17T06:09:43.793Z,11.10
2022-11-17T06:12:12.105Z,11.50
2022-11-17T06:14:39.801Z,11.52
2022-11-17T06:19:43.958Z,11.75
2022-11-17T06:22:12.605Z,11.82
2022-11-17T06:24:43.105Z,13.63
2022-11-17T06:27:12.028Z,13.10
2022-11-17T06:29:44.005Z,15.57
2022-11-17T06:32:13.426Z,17.77
2022-11-17T06:34:40.954Z,36.15
2022-11-17T06:37:07.638Z,14.55
2022-11-17T06:39:34.415Z,13.73
2022-11-17T06:42:02.180Z,13.13
2022-11-17T06:46:56.530Z,14.48
2022-11-17T06:49:23.258Z,15.80
2022-11-17T06:51:49.986Z,17.67
2022-11-17T06:54:16.834Z,12.93
2022-11-17T06:56:43.846Z,14.25
2022-11-17T06:59:10.802Z,13.38
2022-11-17T07:01:39.162Z,15.82
2022-11-17T07:04:11.802Z,11.90
2022-11-17T07:06:39.035Z,11.98
2022-11-17T07:09:06.883Z,11.88
2022-11-17T07:11:36.365Z,12.65
2022-11-17T07:14:03.795Z,12.85
2022-11-17T07:16:32.626Z,13.07
2022-11-17T07:19:07.629Z,14.95
2022-11-17T07:21:41.290Z,15.75
2022-11-17T07:24:08.747Z,11.85
2022-11-17T07:26:35.575Z,11.73
2022-11-17T07:29:10.257Z,17.63
2022-11-17T07:31:38.827Z,12.57
2022-11-17T07:34:07.798Z,15.25
2022-11-17T07:36:36.636Z,27.50
2022-11-17T07:39:05.319Z,15.45
2022-11-17T07:41:32.183Z,13.00
2022-11-17T07:43:59.994Z,12.75
2022-11-17T07:46:26.849Z,10.80
2022-11-17T07:48:54.909Z,10.90
2022-11-17T07:51:21.653Z,10.73
2022-11-17T07:53:49.515Z,10.30
2022-11-17T07:56:23.345Z,11.27
2022-11-17T07:58:50.242Z,12.32
2022-11-17T08:01:17.023Z,11.50
2022-11-17T08:03:45.053Z,11.48
2022-11-17T08:06:13.981Z,11.17
2022-11-17T08:08:40.939Z,12.05
2022-11-17T08:11:12.894Z,12.85
2022-11-17T08:13:40.680Z,56.25
2022-11-17T08:16:09.862Z,20.10
2022-11-17T08:18:38.973Z,16.92
2022-11-17T08:21:13.845Z,15.70
2022-11-17T08:23:41.916Z,15.75
2022-11-17T08:26:11.786Z,15.73
2022-11-17T08:28:39.072Z,15.18
2022-11-17T08:31:07.456Z,13.25
2022-11-17T08:33:34.330Z,12.10
2022-11-17T08:36:02.422Z,13.63
2022-11-17T08:38:29.685Z,11.85
2022-11-17T08:40:58.733Z,12.73
2022-11-17T08:43:25.768Z,12.98
2022-11-17T08:45:52.621Z,14.52
2022-11-17T08:48:20.430Z,12.63
2022-11-17T08:50:47.495Z,11.60
2022-11-17T08:53:16.538Z,11.48
2022-11-17T08:55:44.098Z,12.23
2022-11-17T09:00:40.316Z,12.40
2022-11-17T09:03:11.214Z,12.32
2022-11-17T09:05:44.461Z,11.70
2022-11-17T09:08:43.376Z,12.38
2022-11-17T09:11:01.445Z,12.55
2022-11-17T09:13:31.703Z,13.82
2022-11-17T09:16:04.528Z,19.70
2022-11-17T09:18:31.316Z,11.90
2022-11-17T09:21:07.830Z,11.37
2022-11-17T09:23:36.496Z,13.35
2022-11-17T09:26:12.462Z,12.60
2022-11-17T09:28:40.648Z,21.73
2022-11-17T09:31:15.871Z,16.02
2022-11-17T09:33:45.316Z,15.18
2022-11-17T09:36:13.246Z,16.98
2022-11-17T09:38:43.065Z,16.00
2022-11-17T09:41:20.158Z,7.90
2022-11-17T09:44:18.973Z,8.23
2022-11-17T09:47:20.894Z,6.18
2022-11-17T09:50:04.622Z,5.78
2022-11-17T09:52:50.984Z,4.72
2022-11-17T09:55:53.783Z,5.38
2022-11-17T09:58:40.741Z,4.10
2022-11-17T10:01:22.370Z,5.32
2022-11-17T10:03:52.187Z,4.63
2022-11-17T10:06:24.324Z,4.28
2022-11-17T10:09:32.154Z,18.60
2022-11-17T10:12:23.179Z,4.82
2022-11-17T10:14:51.010Z,7.40
2022-11-17T10:17:18.391Z,5.07
2022-11-17T10:19:46.336Z,4.25
2022-11-17T10:22:35.772Z,10.95
2022-11-17T10:25:02.820Z,4.90
2022-11-17T10:27:35.008Z,3.60
2022-11-17T10:30:23.532Z,3.45
2022-11-17T10:32:54.789Z,8.85
2022-11-17T10:35:35.784Z,4.38
2022-11-17T10:38:08.718Z,3.85
2022-11-17T10:40:41.230Z,4.35
2022-11-17T10:43:15.260Z,6.63
2022-11-17T10:45:50.859Z,4.60
2022-11-17T10:48:28.497Z,5.13
2022-11-17T10:51:29.157Z,4.22
2022-11-17T10:54:07.420Z,4.60
2022-11-17T10:59:28.751Z,4.90
2022-11-17T11:01:55.583Z,7.13
2022-11-17T11:04:41.871Z,9.07
2022-11-17T11:07:19.669Z,6.55
2022-11-17T11:10:03.504Z,5.28
2022-11-17T11:12:41.906Z,4.78
2022-11-17T11:15:23.136Z,5.85
2022-11-17T11:17:52.161Z,4.30
2022-11-17T11:20:24.052Z,4.00
2022-11-17T11:23:02.577Z,3.40
2022-11-17T11:25:41.524Z,3.22
2022-11-17T11:28:38.099Z,3.67
2022-11-17T11:31:43.728Z,4.18
2022-11-17T11:34:30.085Z,3.72
2022-11-17T11:37:10.283Z,3.58
2022-11-17T11:40:11.452Z,4.85
2022-11-17T11:42:46.904Z,3.85
2022-11-17T11:45:19.612Z,3.20
2022-11-17T11:48:00.748Z,2.72
2022-11-17T11:50:50.545Z,2.38
2022-11-17T11:53:34.903Z,3.25
2022-11-17T11:56:27.606Z,2.60
2022-11-17T11:59:20.669Z,7.03
2022-11-17T12:02:15.885Z,3.08
2022-11-17T12:05:02.682Z,2.33
2022-11-17T12:07:55.650Z,2.50
2022-11-17T12:10:30.814Z,3.70
2022-11-17T12:12:58.623Z,2.20
2022-11-17T12:15:30.782Z,2.33
2022-11-17T12:18:19.405Z,3.17
2022-11-17T12:20:55.606Z,3.30
2022-11-17T12:23:42.695Z,3.17
2022-11-17T12:26:32.722Z,2.15
2022-11-17T12:29:21.321Z,2.20
2022-11-17T12:31:50.171Z,2.13
2022-11-17T12:34:32.735Z,2.55
2022-11-17T12:37:14.896Z,2.25
2022-11-17T12:40:08.666Z,2.78
2022-11-17T12:42:36.971Z,2.60
2022-11-17T12:45:09.173Z,2.80
2022-11-17T12:47:41.020Z,2.53
2022-11-17T12:50:48.097Z,3.53
2022-11-17T12:53:54.305Z,5.35
2022-11-17T12:56:52.889Z,10.95
2022-11-17T12:59:44.674Z,3.30
2022-11-17T13:02:24.964Z,3.20
2022-11-17T13:05:10.790Z,3.25
2022-11-17T13:07:37.655Z,3.55
2022-11-17T13:10:04.877Z,3.60
2022-11-17T13:12:33.968Z,3.50
2022-11-17T13:15:04.739Z,3.60
2022-11-17T13:17:31.425Z,3.13
2022-11-17T13:20:04.998Z,3.33
2022-11-17T13:22:32.411Z,3.55
2022-11-17T13:25:19.043Z,3.25
2022-11-17T13:27:59.798Z,3.17
2022-11-17T13:30:31.743Z,3.40
2022-11-17T13:33:02.257Z,3.45
2022-11-17T13:35:32.257Z,3.45
2022-11-17T13:38:19.462Z,3.78
2022-11-17T13:40:47.319Z,3.40
2022-11-17T13:43:20.509Z,3.65
2022-11-17T13:45:48.611Z,3.70
2022-11-17T13:48:31.170Z,4.00
2022-11-17T13:51:18.056Z,4.20
2022-11-17T13:53:47.987Z,3.72
2022-11-17T13:56:33.706Z,4.15
2022-11-17T13:59:20.759Z,7.50
2022-11-17T14:01:49.139Z,5.55
2022-11-17T14:04:22.102Z,4.93
2022-11-17T14:07:03.008Z,3.78
2022-11-17T14:09:36.869Z,4.40
2022-11-17T14:12:10.692Z,4.13
2022-11-17T14:14:47.722Z,4.03
2022-11-17T14:17:20.374Z,5.38
2022-11-17T14:19:48.025Z,5.15
2022-11-17T14:24:51.961Z,7.13
2022-11-17T14:27:28.008Z,4.63
2022-11-17T14:30:05.017Z,4.70
2022-11-17T14:32:32.394Z,4.05
2022-11-17T14:34:59.245Z,3.60
2022-11-17T14:37:27.541Z,4.63
2022-11-17T14:39:54.333Z,4.85
2022-11-17T14:42:21.070Z,4.80
2022-11-17T14:44:47.781Z,4.40
2022-11-17T14:47:14.554Z,4.83
2022-11-17T14:49:41.237Z,4.73
2022-11-17T14:52:08.023Z,4.33
2022-11-17T14:54:37.029Z,6.43
2022-11-17T14:57:03.696Z,6.10
2022-11-17T14:59:37.412Z,5.82
2022-11-17T15:02:05.495Z,6.85
2022-11-17T15:04:49.904Z,6.90
2022-11-17T15:07:17.703Z,6.20
2022-11-17T15:09:44.554Z,6.75
2022-11-17T15:12:11.309Z,6.63
2022-11-17T15:14:38.031Z,6.93
2022-11-17T15:17:05.982Z,8.23
2022-11-17T15:19:36.531Z,7.75
2022-11-17T15:22:04.252Z,7.57
2022-11-17T15:26:57.959Z,7.35
2022-11-17T15:29:24.735Z,15.50
2022-11-17T15:31:51.476Z,10.03
2022-11-17T15:34:20.430Z,11.52
2022-11-17T15:36:48.238Z,14.38
2022-11-17T15:39:15.259Z,14.88
2022-11-17T15:41:46.460Z,17.45
2022-11-17T15:44:13.692Z,16.77
2022-11-17T15:46:46.955Z,14.82
2022-11-17T15:49:15.098Z,17.00
2022-11-17T15:51:42.458Z,23.98
2022-11-17T15:54:18.418Z,16.33
2022-11-17T15:56:48.738Z,16.95
2022-11-17T15:59:16.303Z,17.67
2022-11-17T16:01:44.320Z,16.52
2022-11-17T16:04:13.363Z,16.00
2022-11-17T16:06:43.036Z,14.70
2022-11-17T16:09:10.935Z,16.70
2022-11-17T16:11:38.273Z,14.18
2022-11-17T16:14:05.712Z,14.85
2022-11-17T16:16:35.886Z,16.45
2022-11-17T16:19:04.269Z,30.30
2022-11-17T16:21:33.150Z,15.13
2022-11-17T16:24:11.076Z,11.38
2022-11-17T16:26:40.771Z,11.32
2022-11-17T16:29:08.185Z,12.23
2022-11-17T16:31:39.869Z,10.52
2022-11-17T16:34:12.880Z,10.77
2022-11-17T16:36:41.772Z,11.93
2022-11-17T16:39:15.969Z,11.20
2022-11-17T16:41:46.108Z,11.23
2022-11-17T16:44:19.232Z,12.68
2022-11-17T16:46:50.033Z,12.10
2022-11-17T16:49:18.825Z,12.50
2022-11-17T16:51:52.741Z,10.10
2022-11-17T16:54:20.422Z,10.85
2022-11-17T16:59:14.970Z,11.43
2022-11-17T17:01:44.618Z,25.35
2022-11-17T17:04:12.345Z,16.17
2022-11-17T17:09:08.783Z,17.98
2022-11-17T17:11:36.314Z,18.83
2022-11-17T17:14:07.781Z,20.08
2022-11-17T17:16:37.473Z,29.13
2022-11-17T17:19:07.935Z,31.23
2022-11-17T17:21:44.390Z,30.35
2022-11-17T17:24:16.325Z,31.80
2022-11-17T17:26:59.428Z,36.00
2022-11-17T17:29:32.593Z,50.33
2022-11-17T17:32:00.349Z,41.10
2022-11-17T17:37:05.747Z,32.60
2022-11-17T17:39:35.326Z,32.47
2022-11-17T17:42:06.344Z,38.72
2022-11-17T17:44:33.171Z,54.85
2022-11-17T17:46:59.908Z,35.63
2022-11-17T17:49:27.032Z,41.40
2022-11-17T17:51:54.133Z,38.35
2022-11-17T17:54:23.961Z,37.42
2022-11-17T17:56:50.943Z,34.03
2022-11-17T17:59:18.246Z,41.90
2022-11-17T18:01:47.820Z,37.33
2022-11-17T18:04:16.674Z,37.05
2022-11-17T18:06:48.387Z,41.10
2022-11-17T18:09:19.127Z,44.30
2022-11-17T18:11:51.664Z,53.08
2022-11-17T18:14:28.478Z,49.58
2022-11-17T18:16:56.294Z,71.45
2022-11-17T18:19:32.596Z,46.60
2022-11-17T18:22:00.126Z,47.13
2022-11-17T18:24:27.133Z,16.92
2022-11-17T18:26:56.444Z,30.45
2022-11-17T18:29:27.454Z,37.47
2022-11-17T18:32:00.025Z,41.88
2022-11-17T18:34:28.243Z,39.25
2022-11-17T18:36:55.759Z,39.38
2022-11-17T18:39:23.274Z,38.67
2022-11-17T18:41:56.200Z,35.92
2022-11-17T18:44:23.054Z,37.88
2022-11-17T18:46:57.067Z,33.73
2022-11-17T18:49:29.507Z,30.70
2022-11-17T18:51:56.353Z,34.58
2022-11-17T18:54:25.095Z,31.57
2022-11-17T18:56:52.156Z,32.55
2022-11-17T18:59:19.324Z,31.13
2022-11-17T19:01:46.320Z,29.13
2022-11-17T19:04:15.149Z,32.70
2022-11-17T19:06:43.117Z,31.40
2022-11-17T19:09:11.165Z,28.77
2022-11-17T19:11:47.583Z,29.88
2022-11-17T19:14:14.743Z,30.70
2022-11-17T19:16:44.915Z,26.92
2022-11-17T19:19:19.491Z,29.33
2022-11-17T19:21:57.044Z,34.72
2022-11-17T19:24:40.945Z,29.38
2022-11-17T19:27:11.411Z,25.48
2022-11-17T19:29:46.231Z,28.58
2022-11-17T19:32:20.269Z,31.60
2022-11-17T19:35:03.551Z,30.88
2022-11-17T19:37:46.450Z,31.75
2022-11-17T19:40:15.506Z,32.10
2022-11-17T19:42:51.456Z,35.83
2022-11-17T19:45:29.271Z,34.38
2022-11-17T19:47:58.803Z,37.38
2022-11-17T19:50:25.565Z,32.33
2022-11-17T19:52:57.309Z,31.83
2022-11-17T19:55:24.304Z,34.88
2022-11-17T19:57:52.176Z,39.13
2022-11-17T20:00:20.386Z,35.10
2022-11-17T20:02:49.058Z,36.97
2022-11-17T20:05:17.921Z,34.70
2022-11-17T20:07:54.579Z,39.67
2022-11-17T20:10:22.986Z,44.67
2022-11-17T20:12:49.738Z,40.83
2022-11-17T20:15:33.111Z,37.20
2022-11-17T20:18:02.767Z,39.80
2022-11-17T20:20:30.676Z,33.22
2022-11-17T20:22:57.569Z,40.35
2022-11-17T20:25:24.374Z,43.95
2022-11-17T20:27:52.261Z,39.67
2022-11-17T20:30:19.143Z,42.92
2022-11-17T20:32:45.929Z,43.22
2022-11-17T20:35:12.794Z,50.40
2022-11-17T20:37:39.564Z,60.25
2022-11-17T20:40:07.983Z,63.03
2022-11-17T20:42:35.762Z,51.58
2022-11-17T20:45:03.667Z,51.03
2022-11-17T20:47:34.455Z,48.92
2022-11-17T20:50:01.229Z,49.53
2022-11-17T20:52:36.021Z,42.60
2022-11-17T20:55:02.777Z,45.58
2022-11-17T20:57:35.357Z,42.50
2022-11-17T21:00:02.428Z,37.17
2022-11-17T21:02:29.209Z,34.97
2022-11-17T21:04:56.219Z,33.93
2022-11-17T21:07:23.111Z,34.38
2022-11-17T21:09:49.933Z,32.58
2022-11-17T21:12:16.769Z,33.67
2022-11-17T21:14:51.414Z,34.87
2022-11-17T21:17:36.910Z,33.10
2022-11-17T21:20:10.922Z,28.58
2022-11-17T21:22:37.681Z,30.17
2022-11-17T21:25:04.787Z,28.92
2022-11-17T21:27:34.245Z,22.60
2022-11-17T21:30:03.373Z,23.70
2022-11-17T21:32:36.207Z,21.83
2022-11-17T21:35:06.254Z,21.17
2022-11-17T21:37:33.316Z,21.27
2022-11-17T21:40:00.521Z,21.15
2022-11-17T21:42:28.846Z,21.13
2022-11-17T21:44:57.752Z,21.00
2022-11-17T21:47:27.902Z,21.15
2022-11-17T21:49:56.889Z,21.55
2022-11-17T21:52:25.218Z,20.63
2022-11-17T21:54:51.873Z,17.70
2022-11-17T21:57:18.669Z,16.48
2022-11-17T21:59:46.692Z,16.73
2022-11-17T22:02:13.556Z,16.35
2022-11-17T22:04:41.372Z,17.03
2022-11-17T22:07:11.036Z,15.73
2022-11-17T22:09:37.966Z,14.15
2022-11-17T22:12:04.954Z,13.67
2022-11-17T22:14:37.527Z,12.23
2022-11-17T22:17:05.387Z,12.38
2022-11-17T22:19:33.795Z,10.73
2022-11-17T22:22:00.521Z,11.77
2022-11-17T22:24:28.513Z,12.27
2022-11-17T22:26:57.380Z,10.57
2022-11-17T22:29:25.094Z,11.02
2022-11-17T22:34:24.495Z,10.88
2022-11-17T22:36:51.267Z,11.05
2022-11-17T22:39:20.729Z,10.97
2022-11-17T22:41:47.480Z,11.68
2022-11-17T22:44:15.692Z,10.57
2022-11-17T22:46:45.808Z,10.90
2022-11-17T22:49:13.176Z,10.07
2022-11-17T22:51:58.300Z,10.75
2022-11-17T22:54:27.492Z,10.20
2022-11-17T22:56:54.383Z,10.48
2022-11-17T22:59:23.417Z,10.20
2022-11-17T23:01:50.445Z,9.05
2022-11-17T23:04:17.246Z,9.73
2022-11-17T23:06:44.342Z,10.65
2022-11-17T23:09:20.151Z,9.80
2022-11-17T23:11:46.982Z,9.52
2022-11-17T23:14:14.792Z,9.00
2022-11-17T23:16:42.354Z,8.60
2022-11-17T23:19:13.424Z,17.27
2022-11-17T23:21:40.629Z,15.68
2022-11-17T23:24:14.715Z,16.05
2022-11-17T23:26:42.993Z,15.38
2022-11-17T23:29:10.006Z,18.77
2022-11-17T23:31:36.732Z,18.98
2022-11-17T23:34:03.433Z,18.83
2022-11-17T23:36:30.349Z,14.98
2022-11-17T23:38:57.759Z,15.15
2022-11-17T23:41:24.650Z,12.90
2022-11-17T23:43:52.961Z,12.57
2022-11-17T23:46:22.582Z,11.18
2022-11-17T23:48:49.909Z,12.55
2022-11-17T23:51:19.468Z,12.27
2022-11-17T23:53:46.855Z,12.40
2022-11-17T23:56:13.938Z,12.85
2022-11-17T23:58:40.768Z,11.70
